createdAt,value
2023-03-26T00:01:15.238Z,8.20
2023-03-26T00:03:44.758Z,13.18
2023-03-26T00:06:13.765Z,7.00
2023-03-26T00:08:42.635Z,12.18
2023-03-26T00:11:10.982Z,11.18
2023-03-26T00:13:37.995Z,7.97
2023-03-26T00:16:05.233Z,7.90
2023-03-26T00:18:32.020Z,9.65
2023-03-26T00:20:59.511Z,13.50
2023-03-26T00:23:28.204Z,7.40
2023-03-26T00:25:56.131Z,7.15
2023-03-26T00:28:24.132Z,11.80
2023-03-26T00:30:57.480Z,6.55
2023-03-26T00:33:24.200Z,7.72
2023-03-26T00:35:55.538Z,8.75
2023-03-26T00:38:23.965Z,6.95
2023-03-26T00:40:51.863Z,9.55
2023-03-26T00:43:19.463Z,10.20
2023-03-26T00:45:51.000Z,8.93
2023-03-26T00:48:18.352Z,5.60
2023-03-26T00:50:46.673Z,7.65
2023-03-26T00:53:15.027Z,12.40
2023-03-26T00:55:42.811Z,8.60
2023-03-26T00:58:12.132Z,7.10
2023-03-26T01:00:46.390Z,6.55
2023-03-26T01:03:24.858Z,7.63
2023-03-26T01:06:02.563Z,8.10
2023-03-26T01:08:40.503Z,4.35
2023-03-26T01:11:29.597Z,7.68
2023-03-26T01:14:09.923Z,5.70
2023-03-26T01:16:54.964Z,12.43
2023-03-26T01:19:31.101Z,4.35
2023-03-26T01:21:58.853Z,9.48
2023-03-26T01:24:25.275Z,5.05
2023-03-26T01:27:33.596Z,8.05
2023-03-26T01:30:12.129Z,3.80
2023-03-26T01:32:47.713Z,7.13
2023-03-26T01:35:20.043Z,4.25
2023-03-26T01:38:23.255Z,5.63
2023-03-26T01:41:12.091Z,4.53
2023-03-26T01:43:44.590Z,6.28
2023-03-26T01:46:13.176Z,10.13
2023-03-26T01:48:43.449Z,7.22
2023-03-26T01:51:12.080Z,5.75
2023-03-26T01:53:44.849Z,5.65
2023-03-26T01:56:31.371Z,10.50
2023-03-26T01:59:25.923Z,10.32
2023-03-26T02:02:21.876Z,2.78
2023-03-26T02:05:01.665Z,8.95
2023-03-26T02:07:44.961Z,18.73
2023-03-26T02:10:23.973Z,8.48
2023-03-26T02:12:51.012Z,8.43
2023-03-26T02:15:17.591Z,7.00
2023-03-26T02:17:44.311Z,5.68
2023-03-26T02:20:14.157Z,10.23
2023-03-26T02:22:45.921Z,5.63
2023-03-26T02:25:17.186Z,7.70
2023-03-26T02:27:45.737Z,8.60
2023-03-26T02:30:16.722Z,6.60
2023-03-26T02:32:45.939Z,8.15
2023-03-26T02:35:13.181Z,14.95
2023-03-26T02:37:40.377Z,22.85
2023-03-26T02:40:15.838Z,9.95
2023-03-26T02:42:44.045Z,10.18
2023-03-26T02:45:10.625Z,8.05
2023-03-26T02:48:02.898Z,5.65
2023-03-26T02:50:39.286Z,11.13
2023-03-26T02:56:23.465Z,7.50
2023-03-26T02:59:12.173Z,7.20
2023-03-26T03:01:42.886Z,14.05
2023-03-26T03:04:11.479Z,13.32
2023-03-26T03:06:40.320Z,14.88
2023-03-26T03:09:10.218Z,9.88
2023-03-26T03:11:41.839Z,20.45
2023-03-26T03:14:08.390Z,21.63
2023-03-26T03:16:35.366Z,10.63
2023-03-26T03:19:06.045Z,18.48
2023-03-26T03:21:40.147Z,15.30
2023-03-26T03:24:08.798Z,20.80
2023-03-26T03:26:42.377Z,17.25
2023-03-26T03:29:29.154Z,15.13
2023-03-26T03:32:00.023Z,18.77
2023-03-26T03:34:38.575Z,18.83
2023-03-26T03:37:05.858Z,16.92
2023-03-26T03:39:40.953Z,18.42
2023-03-26T03:42:08.157Z,19.65
2023-03-26T03:44:35.481Z,20.88
2023-03-26T03:47:06.975Z,14.70
2023-03-26T03:49:33.887Z,19.50
2023-03-26T03:52:01.300Z,27.17
2023-03-26T03:54:34.022Z,22.13
2023-03-26T03:57:11.553Z,19.63
2023-03-26T03:59:47.935Z,19.33
2023-03-26T04:02:26.611Z,19.52
2023-03-26T04:04:57.670Z,19.73
2023-03-26T04:07:25.661Z,25.40
2023-03-26T04:10:15.282Z,22.15
2023-03-26T04:13:20.038Z,16.75
2023-03-26T04:16:19.047Z,15.32
2023-03-26T04:18:48.796Z,15.07
2023-03-26T04:21:15.914Z,17.50
2023-03-26T04:23:43.291Z,15.75
2023-03-26T04:26:22.781Z,14.25
2023-03-26T04:29:11.831Z,21.27
2023-03-26T04:31:38.832Z,21.65
2023-03-26T04:34:13.394Z,17.20
2023-03-26T04:36:49.753Z,19.60
2023-03-26T04:39:17.917Z,23.20
2023-03-26T04:42:14.242Z,24.10
2023-03-26T04:44:54.715Z,23.67
2023-03-26T04:47:21.509Z,23.40
2023-03-26T04:49:48.289Z,16.65
2023-03-26T04:52:16.209Z,17.80
2023-03-26T04:55:20.937Z,13.27
2023-03-26T04:57:55.914Z,19.08
2023-03-26T05:00:43.192Z,22.60
2023-03-26T05:03:11.659Z,18.65
2023-03-26T05:05:38.616Z,21.38
2023-03-26T05:08:05.790Z,12.43
2023-03-26T05:10:32.304Z,17.60
2023-03-26T05:13:03.477Z,16.42
2023-03-26T05:15:34.122Z,15.05
2023-03-26T05:18:23.144Z,20.95
2023-03-26T05:20:52.175Z,20.35
2023-03-26T05:23:18.656Z,10.82
2023-03-26T05:25:51.871Z,17.95
2023-03-26T05:28:23.273Z,13.88
2023-03-26T05:31:05.390Z,16.85
2023-03-26T05:33:36.598Z,21.00
2023-03-26T05:36:15.149Z,18.50
2023-03-26T05:38:49.300Z,11.63
2023-03-26T05:41:35.818Z,15.75
2023-03-26T05:44:02.322Z,13.00
2023-03-26T05:46:30.464Z,15.32
2023-03-26T05:48:56.904Z,13.13
2023-03-26T05:51:24.000Z,12.32
2023-03-26T05:54:00.557Z,11.80
2023-03-26T05:56:45.633Z,19.50
2023-03-26T05:59:12.021Z,19.83
2023-03-26T06:02:01.123Z,19.10
2023-03-26T06:04:59.750Z,17.27
2023-03-26T06:07:49.401Z,20.65
2023-03-26T06:10:18.979Z,11.77
2023-03-26T06:12:46.106Z,13.00
2023-03-26T06:15:12.735Z,21.08
2023-03-26T06:17:57.341Z,24.13
2023-03-26T06:20:42.378Z,22.48
2023-03-26T06:23:19.601Z,18.33
2023-03-26T06:26:01.225Z,25.05
2023-03-26T06:28:39.598Z,17.13
2023-03-26T06:31:25.667Z,20.67
2023-03-26T06:34:00.274Z,22.10
2023-03-26T06:36:26.902Z,17.40
2023-03-26T06:38:53.601Z,12.95
2023-03-26T06:41:20.100Z,12.02
2023-03-26T06:43:58.067Z,11.93
2023-03-26T06:46:43.275Z,19.23
2023-03-26T06:49:28.319Z,14.80
2023-03-26T06:52:14.463Z,21.75
2023-03-26T06:55:14.181Z,13.23
2023-03-26T06:57:55.890Z,18.92
2023-03-26T07:00:55.165Z,16.13
2023-03-26T07:03:40.406Z,13.63
2023-03-26T07:06:27.200Z,14.57
2023-03-26T07:08:59.522Z,19.38
2023-03-26T07:11:44.742Z,14.25
2023-03-26T07:14:32.643Z,22.83
2023-03-26T07:17:10.060Z,22.95
2023-03-26T07:19:55.274Z,14.85
2023-03-26T07:22:25.960Z,21.63
2023-03-26T07:25:05.932Z,23.40
2023-03-26T07:27:59.662Z,27.00
2023-03-26T07:30:53.059Z,22.23
2023-03-26T07:33:49.038Z,24.45
2023-03-26T07:36:32.834Z,14.80
2023-03-26T07:39:33.990Z,20.75
2023-03-26T07:42:28.163Z,20.83
2023-03-26T07:45:16.012Z,17.70
2023-03-26T07:48:02.087Z,22.98
2023-03-26T07:50:55.749Z,17.25
2023-03-26T07:53:41.438Z,18.90
2023-03-26T07:56:33.765Z,21.08
2023-03-26T07:59:15.021Z,16.05
2023-03-26T08:02:35.285Z,23.33
2023-03-26T08:05:27.664Z,22.92
2023-03-26T08:08:32.290Z,25.27
2023-03-26T08:12:06.154Z,18.75
2023-03-26T08:14:51.308Z,18.08
2023-03-26T08:17:31.027Z,23.33
2023-03-26T08:20:11.788Z,31.42
2023-03-26T08:22:41.724Z,16.73
2023-03-26T08:25:22.607Z,19.58
2023-03-26T08:28:08.387Z,20.70
2023-03-26T08:30:35.708Z,12.40
2023-03-26T08:33:14.438Z,12.68
2023-03-26T08:35:42.366Z,21.05
2023-03-26T08:38:10.608Z,18.48
2023-03-26T08:41:01.102Z,11.00
2023-03-26T08:44:02.389Z,23.13
2023-03-26T08:46:34.709Z,16.77
2023-03-26T08:49:31.826Z,23.73
2023-03-26T08:52:19.456Z,21.70
2023-03-26T08:55:08.125Z,25.63
2023-03-26T09:00:44.285Z,18.77
2023-03-26T09:03:17.499Z,27.85
2023-03-26T09:06:17.664Z,24.73
2023-03-26T09:08:59.049Z,20.58
2023-03-26T09:11:50.067Z,24.95
2023-03-26T09:14:46.367Z,21.05
2023-03-26T09:17:28.651Z,26.75
2023-03-26T09:23:03.057Z,19.10
2023-03-26T09:26:01.896Z,17.90
2023-03-26T09:28:43.341Z,25.73
2023-03-26T09:31:16.036Z,21.17
2023-03-26T09:34:01.450Z,16.80
2023-03-26T09:36:33.820Z,20.85
2023-03-26T09:39:09.790Z,17.63
2023-03-26T09:41:41.644Z,22.40
2023-03-26T09:44:13.995Z,21.33
2023-03-26T09:46:46.654Z,21.85
2023-03-26T09:49:27.360Z,20.63
2023-03-26T09:52:28.892Z,19.42
2023-03-26T09:55:30.524Z,19.55
2023-03-26T09:58:03.316Z,24.75
2023-03-26T10:00:41.830Z,13.73
2023-03-26T10:03:14.889Z,19.33
2023-03-26T10:06:07.098Z,19.83
2023-03-26T10:09:01.550Z,8.07
2023-03-26T10:11:33.217Z,13.82
2023-03-26T10:14:05.958Z,12.48
2023-03-26T10:16:59.836Z,10.77
2023-03-26T10:19:57.087Z,12.73
2023-03-26T10:22:49.500Z,11.07
2023-03-26T10:25:47.114Z,8.98
2023-03-26T10:28:35.344Z,6.80
2023-03-26T10:31:35.197Z,12.70
2023-03-26T10:34:28.708Z,11.15
2023-03-26T10:37:01.625Z,9.77
2023-03-26T10:40:05.877Z,7.78
2023-03-26T10:42:48.158Z,11.05
2023-03-26T10:45:42.794Z,8.80
2023-03-26T10:48:33.621Z,9.27
2023-03-26T10:51:34.008Z,8.70
2023-03-26T10:54:30.807Z,4.25
2023-03-26T10:56:58.045Z,7.75
2023-03-26T10:59:27.380Z,7.50
2023-03-26T11:02:15.536Z,6.90
2023-03-26T11:04:52.699Z,9.10
2023-03-26T11:07:57.266Z,9.13
2023-03-26T11:10:53.735Z,8.98
2023-03-26T11:13:45.158Z,6.90
2023-03-26T11:16:34.258Z,2.75
2023-03-26T11:19:11.845Z,9.75
2023-03-26T11:21:41.116Z,4.78
2023-03-26T11:24:26.181Z,7.38
2023-03-26T11:27:16.014Z,8.45
2023-03-26T11:29:46.299Z,9.43
2023-03-26T11:32:17.489Z,9.75
2023-03-26T11:35:11.037Z,13.80
2023-03-26T11:37:43.434Z,11.73
2023-03-26T11:40:34.887Z,7.78
2023-03-26T11:43:08.761Z,10.65
2023-03-26T11:45:39.204Z,9.43
2023-03-26T11:48:15.622Z,6.80
2023-03-26T11:50:47.970Z,6.95
2023-03-26T11:53:20.140Z,10.75
2023-03-26T11:55:54.853Z,9.70
2023-03-26T11:58:27.980Z,9.85
2023-03-26T12:00:54.872Z,8.80
2023-03-26T12:03:21.870Z,8.05
2023-03-26T12:05:51.893Z,6.35
2023-03-26T12:08:21.650Z,7.47
2023-03-26T12:11:06.319Z,7.35
2023-03-26T12:13:41.833Z,10.00
2023-03-26T12:16:15.265Z,12.73
2023-03-26T12:18:44.305Z,10.70
2023-03-26T12:21:19.509Z,9.40
2023-03-26T12:23:56.765Z,10.80
2023-03-26T12:26:35.109Z,9.65
2023-03-26T12:29:07.982Z,6.80
2023-03-26T12:32:05.970Z,4.50
2023-03-26T12:34:39.273Z,7.75
2023-03-26T12:37:08.360Z,7.05
2023-03-26T12:40:06.537Z,10.02
2023-03-26T12:44:51.384Z,7.25
2023-03-26T12:45:40.693Z,10.15
2023-03-26T12:48:09.935Z,7.38
2023-03-26T12:51:14.138Z,6.65
2023-03-26T12:54:03.761Z,11.10
2023-03-26T12:56:49.791Z,6.45
2023-03-26T13:00:12.432Z,3.20
2023-03-26T13:03:22.363Z,5.65
2023-03-26T13:06:01.826Z,7.88
2023-03-26T13:08:40.583Z,5.00
2023-03-26T13:11:39.872Z,6.68
2023-03-26T13:14:45.173Z,6.30
2023-03-26T13:17:18.359Z,7.43
2023-03-26T13:19:53.978Z,5.38
2023-03-26T13:22:38.492Z,6.10
2023-03-26T13:25:16.922Z,5.53
2023-03-26T13:28:13.565Z,8.15
2023-03-26T13:31:06.441Z,3.13
2023-03-26T13:33:48.650Z,9.40
2023-03-26T13:36:39.101Z,4.95
2023-03-26T13:39:22.200Z,3.53
2023-03-26T13:42:03.440Z,5.38
2023-03-26T13:44:52.721Z,5.88
2023-03-26T13:47:36.416Z,4.60
2023-03-26T13:50:05.711Z,4.97
2023-03-26T13:52:44.213Z,3.95
2023-03-26T13:55:30.725Z,5.15
2023-03-26T13:58:34.684Z,5.47
2023-03-26T14:01:04.657Z,2.72
2023-03-26T14:03:43.217Z,3.83
2023-03-26T14:06:27.694Z,3.17
2023-03-26T14:09:04.704Z,7.65
2023-03-26T14:11:40.228Z,3.53
2023-03-26T14:14:16.219Z,4.78
2023-03-26T14:16:49.646Z,3.65
2023-03-26T14:19:46.821Z,3.17
2023-03-26T14:22:20.017Z,1.67
2023-03-26T14:25:13.313Z,2.47
2023-03-26T14:27:57.599Z,5.10
2023-03-26T14:30:50.207Z,8.45
2023-03-26T14:33:33.941Z,3.25
2023-03-26T14:36:09.164Z,9.32
2023-03-26T14:38:53.890Z,2.92
2023-03-26T14:41:25.398Z,4.25
2023-03-26T14:44:07.115Z,5.93
2023-03-26T14:46:55.604Z,7.35
2023-03-26T14:49:40.239Z,3.05
2023-03-26T14:52:31.056Z,5.15
2023-03-26T14:55:03.269Z,3.88
2023-03-26T14:57:55.070Z,4.20
2023-03-26T15:00:42.663Z,4.38
2023-03-26T15:03:09.400Z,2.50
2023-03-26T15:06:06.471Z,4.07
2023-03-26T15:08:38.912Z,4.68
2023-03-26T15:11:16.203Z,5.65
2023-03-26T15:14:19.587Z,5.47
2023-03-26T15:17:09.491Z,1.25
2023-03-26T15:19:49.708Z,3.00
2023-03-26T15:22:16.204Z,2.22
2023-03-26T15:25:14.557Z,2.97
2023-03-26T15:27:57.838Z,1.80
2023-03-26T15:30:47.636Z,2.80
2023-03-26T15:33:34.864Z,1.58
2023-03-26T15:36:28.392Z,2.75
2023-03-26T15:39:16.219Z,5.55
2023-03-26T15:41:53.465Z,3.22
2023-03-26T15:44:43.822Z,5.13
2023-03-26T15:47:27.069Z,5.72
2023-03-26T15:49:59.965Z,6.43
2023-03-26T15:52:37.643Z,5.18
2023-03-26T15:55:27.640Z,6.47
2023-03-26T15:58:12.224Z,4.70
2023-03-26T16:00:55.202Z,3.85
2023-03-26T16:03:48.791Z,3.33
2023-03-26T16:06:30.763Z,8.50
2023-03-26T16:09:09.440Z,2.90
2023-03-26T16:12:17.334Z,1.33
2023-03-26T16:14:46.848Z,2.17
2023-03-26T16:17:17.659Z,7.57
2023-03-26T16:19:58.755Z,4.97
2023-03-26T16:23:03.517Z,5.10
2023-03-26T16:25:54.014Z,8.60
2023-03-26T16:28:28.842Z,5.72
2023-03-26T16:31:36.918Z,4.20
2023-03-26T16:34:19.795Z,5.47
2023-03-26T16:36:49.864Z,6.82
2023-03-26T16:39:22.465Z,8.48
2023-03-26T16:41:57.042Z,2.20
2023-03-26T16:45:13.546Z,6.07
2023-03-26T16:48:06.636Z,1.98
2023-03-26T16:50:42.834Z,3.08
2023-03-26T16:53:29.711Z,5.80
2023-03-26T16:55:59.847Z,2.15
2023-03-26T16:58:54.950Z,3.70
2023-03-26T17:01:21.370Z,1.73
2023-03-26T17:04:07.030Z,5.47
2023-03-26T17:06:53.657Z,7.53
2023-03-26T17:09:37.753Z,3.13
2023-03-26T17:12:23.700Z,2.80
2023-03-26T17:14:53.050Z,5.15
2023-03-26T17:17:44.308Z,3.45
2023-03-26T17:20:42.724Z,5.38
2023-03-26T17:23:21.542Z,1.70
2023-03-26T17:26:03.890Z,5.25
2023-03-26T17:28:50.588Z,5.75
2023-03-26T17:31:35.741Z,4.03
2023-03-26T17:34:40.112Z,3.95
2023-03-26T17:37:31.213Z,0.68
2023-03-26T17:39:57.623Z,4.10
2023-03-26T17:42:33.012Z,3.92
2023-03-26T17:45:03.476Z,2.75
2023-03-26T17:47:37.987Z,6.28
2023-03-26T17:50:13.678Z,3.22
2023-03-26T17:52:51.346Z,1.95
2023-03-26T17:55:25.622Z,3.95
2023-03-26T17:57:57.091Z,1.40
2023-03-26T18:00:29.247Z,2.05
2023-03-26T18:03:02.764Z,3.33
2023-03-26T18:05:30.900Z,5.25
2023-03-26T18:08:16.007Z,3.75
2023-03-26T18:11:01.624Z,3.15
2023-03-26T18:13:40.489Z,2.60
2023-03-26T18:16:20.786Z,2.92
2023-03-26T18:19:02.286Z,2.92
2023-03-26T18:21:36.214Z,3.70
2023-03-26T18:24:06.557Z,2.72
2023-03-26T18:26:35.486Z,3.90
2023-03-26T18:29:17.906Z,1.92
2023-03-26T18:31:46.045Z,1.77
2023-03-26T18:34:20.239Z,1.10
2023-03-26T18:37:01.140Z,2.22
2023-03-26T18:39:27.871Z,3.30
2023-03-26T18:41:54.750Z,4.97
2023-03-26T18:44:21.959Z,3.92
2023-03-26T18:46:48.630Z,8.25
2023-03-26T18:49:16.744Z,2.72
2023-03-26T18:51:56.249Z,3.20
2023-03-26T18:54:25.090Z,6.00
2023-03-26T18:56:52.579Z,5.25
2023-03-26T18:59:27.854Z,3.58
2023-03-26T19:01:59.733Z,7.13
2023-03-26T19:04:27.972Z,5.18
2023-03-26T19:06:56.046Z,1.23
2023-03-26T19:09:31.616Z,1.65
2023-03-26T19:12:05.887Z,2.35
2023-03-26T19:14:36.517Z,2.65
2023-03-26T19:19:36.710Z,4.20
2023-03-26T19:22:10.520Z,0.98
2023-03-26T19:24:37.307Z,2.05
2023-03-26T19:27:04.597Z,2.90
2023-03-26T19:29:35.138Z,1.85
2023-03-26T19:32:15.122Z,4.75
2023-03-26T19:34:41.581Z,4.65
2023-03-26T19:37:23.494Z,2.67
2023-03-26T19:39:52.876Z,4.57
2023-03-26T19:42:42.995Z,4.50
2023-03-26T19:45:18.189Z,2.75
2023-03-26T19:47:49.956Z,0.82
2023-03-26T19:50:28.686Z,5.97
2023-03-26T19:53:22.427Z,4.90
2023-03-26T19:55:57.451Z,4.95
2023-03-26T19:58:25.912Z,4.50
2023-03-26T20:00:52.774Z,4.28
2023-03-26T20:03:25.702Z,5.72
2023-03-26T20:05:52.280Z,4.30
2023-03-26T20:08:19.822Z,0.68
2023-03-26T20:10:46.210Z,4.93
2023-03-26T20:13:16.995Z,2.67
2023-03-26T20:18:13.473Z,0.82
2023-03-26T20:20:41.280Z,6.22
2023-03-26T20:23:19.727Z,5.07
2023-03-26T20:25:51.501Z,3.50
2023-03-26T20:28:21.584Z,5.97
2023-03-26T20:30:49.266Z,5.63
2023-03-26T20:33:19.276Z,8.65
2023-03-26T20:35:46.053Z,1.98
2023-03-26T20:38:12.633Z,3.88
2023-03-26T20:40:40.396Z,3.42
2023-03-26T20:43:12.400Z,5.55
2023-03-26T20:45:39.596Z,4.55
2023-03-26T20:48:08.273Z,1.77
2023-03-26T20:50:35.950Z,9.55
2023-03-26T20:53:05.330Z,2.78
2023-03-26T20:55:31.743Z,2.03
2023-03-26T20:57:58.158Z,3.17
2023-03-26T21:00:24.664Z,4.18
2023-03-26T21:02:53.504Z,2.30
2023-03-26T21:05:24.575Z,1.77
2023-03-26T21:07:56.423Z,2.72
2023-03-26T21:10:25.892Z,6.35
2023-03-26T21:13:18.563Z,7.43
2023-03-26T21:15:45.272Z,2.92
2023-03-26T21:18:12.190Z,3.45
2023-03-26T21:20:39.382Z,4.50
2023-03-26T21:23:37.673Z,4.85
2023-03-26T21:26:19.967Z,4.57
2023-03-26T21:28:48.377Z,3.83
2023-03-26T21:31:18.724Z,4.63
2023-03-26T21:33:46.474Z,2.30
2023-03-26T21:36:14.060Z,3.47
2023-03-26T21:38:43.491Z,6.15
2023-03-26T21:41:41.550Z,6.80
2023-03-26T21:44:08.521Z,8.88
2023-03-26T21:46:35.363Z,4.50
2023-03-26T21:49:02.184Z,9.93
2023-03-26T21:51:29.253Z,2.25
2023-03-26T21:53:55.928Z,4.30
2023-03-26T21:56:45.394Z,4.82
2023-03-26T21:59:34.896Z,7.57
2023-03-26T22:02:32.278Z,5.43
2023-03-26T22:05:13.025Z,5.72
2023-03-26T22:08:01.513Z,3.42
2023-03-26T22:10:28.657Z,1.90
2023-03-26T22:12:55.173Z,5.15
2023-03-26T22:15:21.786Z,4.60
2023-03-26T22:17:55.511Z,3.45
2023-03-26T22:20:24.896Z,1.60
2023-03-26T22:22:53.215Z,3.83
2023-03-26T22:25:21.580Z,1.92
2023-03-26T22:27:49.775Z,4.53
2023-03-26T22:30:16.948Z,2.60
2023-03-26T22:32:44.653Z,5.93
2023-03-26T22:35:11.361Z,3.28
2023-03-26T22:37:37.816Z,3.10
2023-03-26T22:40:10.243Z,6.45
2023-03-26T22:42:36.807Z,5.45
2023-03-26T22:45:04.075Z,6.43
2023-03-26T22:47:33.519Z,1.75
2023-03-26T22:50:00.573Z,8.95
2023-03-26T22:52:27.219Z,6.22
2023-03-26T22:54:53.680Z,2.53
2023-03-26T22:57:21.578Z,2.92
2023-03-26T22:59:48.137Z,2.75
2023-03-26T23:02:16.475Z,2.13
2023-03-26T23:04:44.037Z,3.53
2023-03-26T23:07:10.845Z,4.03
2023-03-26T23:09:37.306Z,1.98
2023-03-26T23:12:04.406Z,1.63
2023-03-26T23:14:32.342Z,2.22
2023-03-26T23:16:59.410Z,2.17
2023-03-26T23:19:26.308Z,2.03
2023-03-26T23:21:52.745Z,4.68
2023-03-26T23:24:19.735Z,3.35
2023-03-26T23:26:50.565Z,4.70
2023-03-26T23:29:18.276Z,5.25
2023-03-26T23:31:44.855Z,3.40
2023-03-26T23:34:13.344Z,4.32
2023-03-26T23:36:40.747Z,1.42
2023-03-26T23:39:07.202Z,1.00
2023-03-26T23:41:33.890Z,3.65
2023-03-26T23:44:01.493Z,3.05
2023-03-26T23:46:30.333Z,2.67
2023-03-26T23:48:59.826Z,2.53
2023-03-26T23:51:26.631Z,2.92
2023-03-26T23:53:53.924Z,2.65
2023-03-26T23:56:20.983Z,2.78
2023-03-26T23:58:48.935Z,5.82
